Time;durP1;ratioP1;P1;durP2;ratioP2;P2;SDS_P1;SDS_P2;PMS_P1;PMS_P2;Temp;Humidity;BMP_temperature;BMP_pressure;BME280_temperature;BME280_humidity;BME280_pressure;Samples;Min_cycle;Max_cycle;Signal;HPM_P1;HPM_P2
2022/12/16 00:01:26;;;;;;;4.45;3.97;;;;;;;18.79;46.06;99777.97;5034646;28;20420;-73
2022/12/16 00:03:55;;;;;;;5.75;4.50;;;;;;;18.77;46.01;99782.66;5033546;28;20060;-73
2022/12/16 00:06:26;;;;;;;4.45;3.97;;;;;;;18.77;46.09;99794.22;5033699;28;20052;-73
2022/12/16 00:08:53;;;;;;;5.28;4.30;;;;;;;18.77;45.89;99794.22;5033179;28;20057;-73
2022/12/16 00:11:21;;;;;;;5.20;4.35;;;;;;;18.77;45.98;99788.03;5034253;28;20046;-73
2022/12/16 00:13:48;;;;;;;5.85;4.10;;;;;;;18.76;45.82;99776.47;5032548;28;20060;-73
2022/12/16 00:16:18;;;;;;;5.75;4.30;;;;;;;18.75;45.73;99774.75;5033895;28;20049;-73
2022/12/16 00:18:46;;;;;;;5.28;4.32;;;;;;;18.75;45.60;99769.41;5034174;28;20065;-73
2022/12/16 00:21:17;;;;;;;6.68;4.05;;;;;;;18.75;45.44;99771.25;5034018;28;20049;-73
2022/12/16 00:23:45;;;;;;;4.80;4.10;;;;;;;18.75;45.46;99774.75;5034410;28;20038;-73
2022/12/16 00:26:13;;;;;;;5.40;4.03;;;;;;;18.74;45.57;99770.41;5033920;28;20057;-73
2022/12/16 00:28:42;;;;;;;5.35;4.38;;;;;;;18.74;45.52;99772.25;5033931;28;20048;-73
2022/12/16 00:31:10;;;;;;;6.80;4.63;;;;;;;18.73;45.43;99776.75;5034244;28;20045;-73
2022/12/16 00:33:38;;;;;;;7.28;4.30;;;;;;;18.72;45.58;99774.25;5033869;28;20049;-73
2022/12/16 00:36:06;;;;;;;5.97;4.20;;;;;;;18.73;45.69;99781.28;5033903;28;20045;-73
2022/12/16 00:38:34;;;;;;;5.70;4.05;;;;;;;18.72;45.43;99784.97;5033875;28;20057;-73
2022/12/16 00:41:01;;;;;;;5.18;4.40;;;;;;;18.72;45.55;99782.28;5032817;28;20053;-73
2022/12/16 00:43:28;;;;;;;6.28;4.32;;;;;;;18.72;45.32;99776.94;5033838;28;20397;-72
2022/12/16 00:45:56;;;;;;;5.07;4.20;;;;;;;18.71;45.49;99773.38;5033364;28;20453;-72
2022/12/16 00:48:24;;;;;;;7.85;4.15;;;;;;;18.70;45.44;99782.44;5033615;28;20046;-72
2022/12/16 00:50:53;;;;;;;5.45;3.97;;;;;;;18.71;45.50;99784.09;5033494;28;20045;-73
2022/12/16 00:53:22;;;;;;;4.97;3.85;;;;;;;18.71;45.52;99781.41;5033219;28;20068;-73
2022/12/16 00:56:10;;;;;;;6.18;3.88;;;;;;;18.71;45.36;99789.47;5034114;28;20049;-73
2022/12/16 00:58:38;;;;;;;5.15;4.13;;;;;;;18.71;45.48;99777.91;5015573;28;20049;-73
2022/12/16 01:01:07;;;;;;;5.30;4.15;;;;;;;18.70;45.30;99776.22;5033596;28;20053;-73
2022/12/16 01:03:34;;;;;;;5.97;4.03;;;;;;;18.70;45.42;99782.44;5033692;28;20042;-72
2022/12/16 01:06:20;;;;;;;5.70;4.10;;;;;;;18.70;45.46;99774.38;5033396;28;20064;-73
2022/12/16 01:08:48;;;;;;;5.05;4.18;;;;;;;18.70;45.36;99793.16;5032036;28;20057;-73
2022/12/16 01:11:17;;;;;;;5.43;4.35;;;;;;;18.70;45.46;99795.00;5033824;28;20509;-72
2022/12/16 01:13:49;;;;;;;4.43;3.40;;;;;;;18.69;45.78;99794.13;5032954;28;20048;-73
2022/12/16 01:16:18;;;;;;;4.65;4.13;;;;;;;18.69;45.52;99796.81;5032910;28;20050;-73
2022/12/16 01:18:46;;;;;;;4.68;3.97;;;;;;;18.69;45.37;99791.44;5033580;28;20044;-73
2022/12/16 01:21:14;;;;;;;5.25;4.20;;;;;;;18.69;45.35;99798.66;5033400;28;20053;-73
2022/12/16 01:23:42;;;;;;;4.78;3.83;;;;;;;18.68;45.58;99789.75;5032089;28;20045;-73
2022/12/16 01:26:14;;;;;;;5.30;4.32;;;;;;;18.68;45.41;99778.19;5033929;28;20045;-73
2022/12/16 01:28:42;;;;;;;4.53;3.70;;;;;;;18.67;45.41;99793.41;5033625;28;20046;-73
2022/12/16 01:31:10;;;;;;;5.20;3.72;;;;;;;18.67;45.63;99792.56;5033371;28;20041;-73
2022/12/16 01:33:37;;;;;;;4.90;3.60;;;;;;;18.67;45.37;99787.22;5033368;28;20050;-72
2022/12/16 01:36:07;;;;;;;4.68;3.72;;;;;;;18.66;45.47;99789.06;5032782;28;20049;-72
2022/12/16 01:38:35;;;;;;;4.75;3.85;;;;;;;18.66;45.44;99797.09;5032986;28;20469;-73
2022/12/16 01:41:03;;;;;;;4.00;3.35;;;;;;;18.66;45.65;99810.50;5033442;28;20049;-72
2022/12/16 01:43:35;;;;;;;4.72;3.75;;;;;;;18.66;45.54;99790.91;5032887;28;20037;-73
2022/12/16 01:46:11;;;;;;;5.40;3.83;;;;;;;18.66;45.57;99769.44;5033273;28;20049;-73
2022/12/16 01:48:48;;;;;;;4.22;3.63;;;;;;;18.66;45.72;99764.09;5033532;28;20060;-72
2022/12/16 01:51:32;;;;;;;5.03;4.03;;;;;;;18.65;45.62;99771.28;5031421;28;20060;-73
2022/12/16 01:54:22;;;;;;;5.18;4.03;;;;;;;18.64;45.60;99777.66;5033147;28;20037;-73
2022/12/16 01:57:05;;;;;;;4.90;3.60;;;;;;;18.65;45.54;99795.41;5032602;28;20045;-73
2022/12/16 01:59:35;;;;;;;3.92;3.20;;;;;;;18.64;45.69;99792.91;5035675;28;20056;-72
2022/12/16 02:02:03;;;;;;;4.38;3.40;;;;;;;18.64;45.74;99783.03;5036687;28;20052;-72
2022/12/16 02:04:31;;;;;;;4.22;3.13;;;;;;;18.64;45.78;99766.94;5037025;28;20049;-72
2022/12/16 02:07:00;;;;;;;4.07;3.17;;;;;;;18.63;45.64;99778.63;5036810;28;20045;-72
2022/12/16 02:09:27;;;;;;;4.38;3.22;;;;;;;18.64;45.62;99782.19;5036489;28;20056;-72
2022/12/16 02:12:06;;;;;;;4.65;3.30;;;;;;;18.62;45.74;99790.34;5036606;28;20045;-71
2022/12/16 02:15:02;;;;;;;3.95;3.22;;;;;;;18.62;45.67;99789.53;5036496;28;20041;-71
2022/12/16 02:17:40;;;;;;;4.55;2.97;;;;;;;18.63;45.71;99789.34;5035886;28;20052;-72
2022/12/16 02:20:44;;;;;;;3.47;2.88;;;;;;;18.63;45.73;99799.25;5036223;28;20053;-72
2022/12/16 02:23:21;;;;;;;3.58;3.00;;;;;;;18.62;45.79;99790.34;5035776;28;20516;-71
2022/12/16 02:25:57;;;;;;;4.38;2.78;;;;;;;18.62;45.75;99802.91;5036701;28;20049;-74
2022/12/16 02:28:33;;;;;;;4.85;3.75;;;;;;;18.62;45.72;99806.44;5036396;28;20484;-74
2022/12/16 02:31:32;;;;;;;4.47;3.22;;;;;;;18.61;45.47;99798.56;5036432;28;20056;-74
2022/12/16 02:34:09;;;;;;;3.95;3.00;;;;;;;18.62;45.62;99797.56;5036061;28;20046;-74
2022/12/16 02:37:09;;;;;;;3.45;2.90;;;;;;;18.61;45.80;99810.13;5036672;28;20049;-74
2022/12/16 02:39:41;;;;;;;5.25;3.10;;;;;;;18.61;45.80;99785.16;5035999;28;20532;-72
2022/12/16 02:42:24;;;;;;;3.10;2.50;;;;;;;18.60;45.70;99787.00;5036111;28;20049;-72
2022/12/16 02:45:10;;;;;;;4.07;3.10;;;;;;;18.61;45.75;99788.69;5035906;28;20045;-72
2022/12/16 02:47:38;;;;;;;3.40;2.60;;;;;;;18.61;45.60;99790.53;5036504;28;20385;-72
2022/12/16 02:50:38;;;;;;;6.68;3.20;;;;;;;18.60;45.77;99780.81;5035729;28;20041;-72
2022/12/16 02:53:08;;;;;;;3.40;2.85;;;;;;;18.60;45.70;99773.59;5030428;28;20064;-72
2022/12/16 02:55:58;;;;;;;3.72;2.97;;;;;;;18.60;45.66;99799.56;5035722;28;20045;-72
2022/12/16 02:58:35;;;;;;;3.95;2.95;;;;;;;18.60;45.68;99802.25;5035179;28;20053;-72
2022/12/16 03:01:14;;;;;;;4.88;3.20;;;;;;;18.59;45.78;99787.97;5034263;28;20053;-72
2022/12/16 03:04:00;;;;;;;3.30;2.70;;;;;;;18.60;45.87;99780.81;5035432;28;20037;-72
2022/12/16 03:06:30;;;;;;;3.50;2.55;;;;;;;18.59;45.92;99785.28;5035732;28;20512;-72
2022/12/16 03:09:02;;;;;;;3.78;3.00;;;;;;;18.57;45.76;99779.25;5034681;28;20049;-72
2022/12/16 03:11:31;;;;;;;6.38;2.95;;;;;;;18.58;45.93;99785.47;5035163;28;20048;-72
2022/12/16 03:14:00;;;;;;;3.65;2.25;;;;;;;18.58;45.48;99772.91;5035508;28;20049;-72
2022/12/16 03:16:30;;;;;;;4.07;2.38;;;;;;;18.57;45.73;99784.63;5035122;28;20045;-72
2022/12/16 03:19:02;;;;;;;3.90;2.20;;;;;;;18.58;45.87;99774.72;5034593;28;20493;-72
2022/12/16 03:21:36;;;;;;;3.17;2.28;;;;;;;18.58;45.79;99780.94;5035182;28;20053;-72
2022/12/16 03:24:07;;;;;;;4.85;2.85;;;;;;;18.57;45.85;99789.97;5035603;28;20049;-72
2022/12/16 03:26:53;;;;;;;2.78;2.03;;;;;;;18.57;45.84;99795.34;5035624;28;20060;-71
2022/12/16 03:29:27;;;;;;;3.35;2.50;;;;;;;18.57;45.83;99781.94;5035203;28;20378;-72
2022/12/16 03:32:00;;;;;;;4.88;2.75;;;;;;;18.57;45.88;99789.13;5035291;28;20056;-72
2022/12/16 03:34:35;;;;;;;3.33;2.40;;;;;;;18.57;45.85;99794.50;5035371;28;20045;-72
2022/12/16 03:37:06;;;;;;;3.53;2.33;;;;;;;18.57;45.83;99784.63;5034993;28;20489;-72
2022/12/16 03:39:40;;;;;;;3.08;2.30;;;;;;;18.56;45.72;99790.97;5035080;28;20045;-72
2022/12/16 03:42:09;;;;;;;3.40;2.30;;;;;;;18.57;45.74;99799.84;5035242;28;20053;-72
2022/12/16 03:44:37;;;;;;;4.03;2.28;;;;;;;18.57;45.88;99799.84;5034764;28;20045;-72
2022/12/16 03:47:05;;;;;;;3.80;2.92;;;;;;;18.57;45.85;99797.19;5033429;28;20405;-72
2022/12/16 03:49:32;;;;;;;2.65;2.00;;;;;;;18.56;45.89;99782.94;5035190;28;20037;-71
2022/12/16 03:52:00;;;;;;;2.90;2.20;;;;;;;18.56;45.74;99795.50;5034633;28;20049;-72
2022/12/16 03:54:27;;;;;;;2.53;1.90;;;;;;;18.56;45.74;99793.66;5034474;28;20405;-73
2022/12/16 03:56:54;;;;;;;3.22;2.53;;;;;;;18.55;45.70;99797.31;5033492;28;20489;-72
2022/12/16 03:59:22;;;;;;;4.32;2.53;;;;;;;18.55;45.98;99789.28;5033799;28;20120;-72
2022/12/16 04:01:49;;;;;;;3.30;2.08;;;;;;;18.55;45.81;99794.63;5034446;28;20049;-72
2022/12/16 04:04:17;;;;;;;3.13;2.17;;;;;;;18.56;45.87;99798.19;5034472;28;20405;-72
2022/12/16 04:07:18;;;;;;;3.05;1.95;;;;;;;18.56;45.73;99800.88;5033489;28;20069;-72
2022/12/16 04:09:32;;;;;;;3.78;1.90;;;;;;;18.55;45.75;99808.03;5034659;28;20049;-72
2022/12/16 04:25:50;;;;;;;2.72;1.95;;;;;;;18.52;45.82;99813.72;5034044;28;20476;-71
2022/12/16 04:28:17;;;;;;;3.03;2.00;;;;;;;18.52;45.78;99803.84;5034044;28;20049;-73
2022/12/16 04:30:45;;;;;;;3.58;2.00;;;;;;;18.53;45.72;99810.03;5034167;28;20045;-71
